Mount Pearl, Canada
Current Conditions -  °F | °C
As of 6:34 PM on Friday 24 Oct 2014 (Local Time) from CYYT Reporting Station
Light Rain Light Rain  
Wind Chill:   Ceiling: 200
Heat Index:   Visibility: 0.5mi
Dew Point:   Wind: 9mph
Humidity: 100%   Direction: 60°ENE
Pressure: 29.71"   Gusts: NA
Location:  47.52°N, 52.82°W
Report Text: CYYT 242034Z 06008KT 1/2SM R11/5000FT/N -RA FG VV002 09/09 A2971 RMK FG8 SLP063
Loading
Personal Weather Stations






























Interactive Weather Map
Tropical Storm Tracking
New forecast layout! Learn more

10-Day Weather Forecast

Advertisements
Track Severe Weather on mobile